sensor_id;sensor_type;location;lat;lon;timestamp;P1;durP1;ratioP1;P2;durP2;ratioP2
44706;SDS011;30433;45.596;8.408;2023-06-14T00:04:44;12.53;;;7.00;;
44706;SDS011;30433;45.596;8.408;2023-06-14T00:10:49;9.18;;;7.93;;
44706;SDS011;30433;45.596;8.408;2023-06-14T00:16:51;13.85;;;10.38;;
44706;SDS011;30433;45.596;8.408;2023-06-14T00:22:58;14.77;;;10.00;;
44706;SDS011;30433;45.596;8.408;2023-06-14T00:29:02;10.45;;;9.45;;
44706;SDS011;30433;45.596;8.408;2023-06-14T00:35:04;14.55;;;11.15;;
44706;SDS011;30433;45.596;8.408;2023-06-14T00:41:09;12.65;;;11.45;;
44706;SDS011;30433;45.596;8.408;2023-06-14T00:47:13;13.93;;;11.35;;
44706;SDS011;30433;45.596;8.408;2023-06-14T00:53:15;13.23;;;11.75;;
44706;SDS011;30433;45.596;8.408;2023-06-14T00:59:18;13.63;;;11.95;;
44706;SDS011;30433;45.596;8.408;2023-06-14T01:05:22;12.80;;;11.47;;
44706;SDS011;30433;45.596;8.408;2023-06-14T01:11:26;16.20;;;10.70;;
44706;SDS011;30433;45.596;8.408;2023-06-14T01:17:35;13.85;;;11.85;;
44706;SDS011;30433;45.596;8.408;2023-06-14T01:23:45;12.30;;;10.80;;
44706;SDS011;30433;45.596;8.408;2023-06-14T01:29:53;13.50;;;10.93;;
44706;SDS011;30433;45.596;8.408;2023-06-14T01:35:56;13.52;;;12.18;;
44706;SDS011;30433;45.596;8.408;2023-06-14T01:48:03;13.05;;;11.82;;
44706;SDS011;30433;45.596;8.408;2023-06-14T01:54:06;12.98;;;11.77;;
44706;SDS011;30433;45.596;8.408;2023-06-14T02:00:10;13.70;;;11.37;;
44706;SDS011;30433;45.596;8.408;2023-06-14T02:06:13;11.73;;;10.63;;
44706;SDS011;30433;45.596;8.408;2023-06-14T02:18:19;12.82;;;11.63;;
44706;SDS011;30433;45.596;8.408;2023-06-14T02:24:21;7.45;;;6.65;;
44706;SDS011;30433;45.596;8.408;2023-06-14T02:30:23;7.03;;;6.30;;
44706;SDS011;30433;45.596;8.408;2023-06-14T02:36:27;5.27;;;4.77;;
44706;SDS011;30433;45.596;8.408;2023-06-14T02:42:30;4.53;;;4.13;;
44706;SDS011;30433;45.596;8.408;2023-06-14T02:48:32;4.07;;;3.43;;
44706;SDS011;30433;45.596;8.408;2023-06-14T02:54:36;4.05;;;2.67;;
44706;SDS011;30433;45.596;8.408;2023-06-14T03:00:41;4.38;;;2.70;;
44706;SDS011;30433;45.596;8.408;2023-06-14T03:06:44;3.25;;;2.63;;
44706;SDS011;30433;45.596;8.408;2023-06-14T03:12:51;3.67;;;3.05;;
44706;SDS011;30433;45.596;8.408;2023-06-14T03:18:53;4.03;;;3.03;;
44706;SDS011;30433;45.596;8.408;2023-06-14T03:24:56;6.00;;;4.10;;
44706;SDS011;30433;45.596;8.408;2023-06-14T03:31:00;4.72;;;4.13;;
44706;SDS011;30433;45.596;8.408;2023-06-14T03:37:03;4.13;;;3.72;;
44706;SDS011;30433;45.596;8.408;2023-06-14T03:43:05;4.60;;;4.20;;
44706;SDS011;30433;45.596;8.408;2023-06-14T03:49:09;4.70;;;3.97;;
44706;SDS011;30433;45.596;8.408;2023-06-14T03:55:12;4.70;;;4.30;;
44706;SDS011;30433;45.596;8.408;2023-06-14T04:01:14;5.00;;;4.50;;
44706;SDS011;30433;45.596;8.408;2023-06-14T04:07:17;7.37;;;4.90;;
44706;SDS011;30433;45.596;8.408;2023-06-14T04:13:20;6.03;;;4.63;;
44706;SDS011;30433;45.596;8.408;2023-06-14T04:19:22;6.40;;;4.30;;
44706;SDS011;30433;45.596;8.408;2023-06-14T04:25:25;5.60;;;4.53;;
44706;SDS011;30433;45.596;8.408;2023-06-14T04:31:30;5.90;;;5.30;;
44706;SDS011;30433;45.596;8.408;2023-06-14T04:37:39;6.22;;;5.00;;
44706;SDS011;30433;45.596;8.408;2023-06-14T04:43:43;6.93;;;5.07;;
44706;SDS011;30433;45.596;8.408;2023-06-14T04:49:48;7.60;;;4.53;;
44706;SDS011;30433;45.596;8.408;2023-06-14T04:55:53;4.70;;;4.28;;
44706;SDS011;30433;45.596;8.408;2023-06-14T05:01:57;6.50;;;3.63;;
44706;SDS011;30433;45.596;8.408;2023-06-14T05:08:00;6.75;;;4.18;;
44706;SDS011;30433;45.596;8.408;2023-06-14T05:14:02;6.33;;;3.90;;
44706;SDS011;30433;45.596;8.408;2023-06-14T05:20:06;4.07;;;3.07;;
44706;SDS011;30433;45.596;8.408;2023-06-14T05:26:10;8.48;;;3.00;;
44706;SDS011;30433;45.596;8.408;2023-06-14T05:32:12;5.00;;;2.83;;
44706;SDS011;30433;45.596;8.408;2023-06-14T05:38:16;3.17;;;2.33;;
44706;SDS011;30433;45.596;8.408;2023-06-14T05:44:18;3.08;;;2.35;;
44706;SDS011;30433;45.596;8.408;2023-06-14T05:50:20;4.67;;;1.90;;
44706;SDS011;30433;45.596;8.408;2023-06-14T05:56:24;3.08;;;2.40;;
44706;SDS011;30433;45.596;8.408;2023-06-14T06:02:26;3.08;;;2.78;;
44706;SDS011;30433;45.596;8.408;2023-06-14T06:08:28;3.67;;;2.60;;
44706;SDS011;30433;45.596;8.408;2023-06-14T06:20:34;2.17;;;1.77;;
44706;SDS011;30433;45.596;8.408;2023-06-14T06:26:37;9.30;;;2.38;;
44706;SDS011;30433;45.596;8.408;2023-06-14T06:32:41;4.88;;;2.53;;
44706;SDS011;30433;45.596;8.408;2023-06-14T06:38:43;5.20;;;2.70;;
44706;SDS011;30433;45.596;8.408;2023-06-14T06:44:45;3.05;;;2.08;;
44706;SDS011;30433;45.596;8.408;2023-06-14T06:50:49;8.68;;;2.80;;
44706;SDS011;30433;45.596;8.408;2023-06-14T06:56:51;4.03;;;2.28;;
44706;SDS011;30433;45.596;8.408;2023-06-14T07:02:53;4.10;;;2.63;;
44706;SDS011;30433;45.596;8.408;2023-06-14T07:08:58;4.88;;;2.40;;
44706;SDS011;30433;45.596;8.408;2023-06-14T07:15:01;4.05;;;2.42;;
44706;SDS011;30433;45.596;8.408;2023-06-14T07:21:03;4.45;;;2.40;;
44706;SDS011;30433;45.596;8.408;2023-06-14T07:27:07;7.77;;;2.47;;
44706;SDS011;30433;45.596;8.408;2023-06-14T07:33:09;3.65;;;1.95;;
44706;SDS011;30433;45.596;8.408;2023-06-14T07:39:12;6.22;;;2.08;;
44706;SDS011;30433;45.596;8.408;2023-06-14T07:45:16;3.17;;;2.28;;
44706;SDS011;30433;45.596;8.408;2023-06-14T07:51:18;3.40;;;2.25;;
44706;SDS011;30433;45.596;8.408;2023-06-14T07:57:21;4.18;;;2.20;;
44706;SDS011;30433;45.596;8.408;2023-06-14T08:03:25;3.17;;;2.88;;
44706;SDS011;30433;45.596;8.408;2023-06-14T08:09:27;2.95;;;2.40;;
44706;SDS011;30433;45.596;8.408;2023-06-14T08:15:30;5.50;;;4.95;;
44706;SDS011;30433;45.596;8.408;2023-06-14T08:21:33;4.10;;;3.10;;
44706;SDS011;30433;45.596;8.408;2023-06-14T08:27:36;4.22;;;3.50;;
44706;SDS011;30433;45.596;8.408;2023-06-14T08:33:38;3.58;;;3.20;;
44706;SDS011;30433;45.596;8.408;2023-06-14T08:39:44;6.40;;;3.95;;
44706;SDS011;30433;45.596;8.408;2023-06-14T08:45:46;6.68;;;3.65;;
44706;SDS011;30433;45.596;8.408;2023-06-14T08:51:58;4.65;;;4.15;;
44706;SDS011;30433;45.596;8.408;2023-06-14T08:58:03;5.78;;;3.95;;
44706;SDS011;30433;45.596;8.408;2023-06-14T09:04:06;4.82;;;3.90;;
44706;SDS011;30433;45.596;8.408;2023-06-14T09:10:09;7.97;;;4.00;;
44706;SDS011;30433;45.596;8.408;2023-06-14T09:16:13;7.40;;;6.70;;
44706;SDS011;30433;45.596;8.408;2023-06-14T09:22:18;7.75;;;5.45;;
44706;SDS011;30433;45.596;8.408;2023-06-14T09:28:20;7.70;;;6.90;;
44706;SDS011;30433;45.596;8.408;2023-06-14T09:34:30;8.13;;;6.90;;
44706;SDS011;30433;45.596;8.408;2023-06-14T09:40:33;8.10;;;7.10;;
44706;SDS011;30433;45.596;8.408;2023-06-14T09:46:37;9.02;;;7.50;;
44706;SDS011;30433;45.596;8.408;2023-06-14T09:52:43;8.65;;;7.03;;
44706;SDS011;30433;45.596;8.408;2023-06-14T09:58:48;9.65;;;6.93;;
44706;SDS011;30433;45.596;8.408;2023-06-14T10:04:56;9.25;;;7.30;;
44706;SDS011;30433;45.596;8.408;2023-06-14T10:11:08;8.55;;;7.38;;
44706;SDS011;30433;45.596;8.408;2023-06-14T10:17:11;8.07;;;5.95;;
44706;SDS011;30433;45.596;8.408;2023-06-14T10:23:20;6.68;;;5.95;;
44706;SDS011;30433;45.596;8.408;2023-06-14T10:29:26;7.20;;;6.50;;
44706;SDS011;30433;45.596;8.408;2023-06-14T10:35:32;7.75;;;5.40;;
44706;SDS011;30433;45.596;8.408;2023-06-14T10:41:35;7.38;;;6.40;;
44706;SDS011;30433;45.596;8.408;2023-06-14T10:47:39;10.57;;;6.30;;
44706;SDS011;30433;45.596;8.408;2023-06-14T10:53:42;5.93;;;5.30;;
44706;SDS011;30433;45.596;8.408;2023-06-14T10:59:46;7.65;;;5.45;;
44706;SDS011;30433;45.596;8.408;2023-06-14T11:05:53;8.98;;;6.10;;
44706;SDS011;30433;45.596;8.408;2023-06-14T14:23:42;9.52;;;7.45;;
44706;SDS011;30433;45.596;8.408;2023-06-14T14:29:45;10.73;;;9.63;;
44706;SDS011;30433;45.596;8.408;2023-06-14T14:35:47;9.90;;;9.00;;
44706;SDS011;30433;45.596;8.408;2023-06-14T14:48:29;10.93;;;8.10;;
44706;SDS011;30433;45.596;8.408;2023-06-14T15:01:28;9.38;;;8.48;;
44706;SDS011;30433;45.596;8.408;2023-06-14T15:20:50;7.45;;;6.70;;
44706;SDS011;30433;45.596;8.408;2023-06-14T15:40:29;20.77;;;6.15;;
44706;SDS011;30433;45.596;8.408;2023-06-14T15:46:31;5.97;;;4.65;;
44706;SDS011;30433;45.596;8.408;2023-06-14T15:52:33;5.70;;;5.10;;
44706;SDS011;30433;45.596;8.408;2023-06-14T15:58:37;6.18;;;5.35;;
44706;SDS011;30433;45.596;8.408;2023-06-14T16:11:51;5.03;;;4.53;;
44706;SDS011;30433;45.596;8.408;2023-06-14T16:17:56;6.68;;;4.72;;
44706;SDS011;30433;45.596;8.408;2023-06-14T16:23:58;5.05;;;4.57;;
44706;SDS011;30433;45.596;8.408;2023-06-14T16:36:13;7.72;;;5.30;;
44706;SDS011;30433;45.596;8.408;2023-06-14T16:49:13;6.00;;;5.50;;
44706;SDS011;30433;45.596;8.408;2023-06-14T16:55:16;6.45;;;4.75;;
44706;SDS011;30433;45.596;8.408;2023-06-14T17:01:19;5.97;;;4.97;;
44706;SDS011;30433;45.596;8.408;2023-06-14T17:07:21;5.65;;;4.63;;
44706;SDS011;30433;45.596;8.408;2023-06-14T17:13:25;4.97;;;4.47;;
44706;SDS011;30433;45.596;8.408;2023-06-14T17:19:30;5.75;;;4.60;;
44706;SDS011;30433;45.596;8.408;2023-06-14T17:25:53;7.03;;;4.65;;
44706;SDS011;30433;45.596;8.408;2023-06-14T17:38:34;8.68;;;4.35;;
44706;SDS011;30433;45.596;8.408;2023-06-14T17:44:37;6.75;;;4.10;;
44706;SDS011;30433;45.596;8.408;2023-06-14T17:50:39;6.55;;;4.32;;
44706;SDS011;30433;45.596;8.408;2023-06-14T18:02:45;7.25;;;4.30;;
44706;SDS011;30433;45.596;8.408;2023-06-14T18:30:21;7.75;;;3.97;;
44706;SDS011;30433;45.596;8.408;2023-06-14T18:36:35;5.70;;;5.20;;
44706;SDS011;30433;45.596;8.408;2023-06-14T18:49:39;5.57;;;5.07;;
44706;SDS011;30433;45.596;8.408;2023-06-14T18:55:41;6.95;;;6.22;;
44706;SDS011;30433;45.596;8.408;2023-06-14T19:08:42;7.65;;;5.03;;
44706;SDS011;30433;45.596;8.408;2023-06-14T19:14:47;8.07;;;5.30;;
44706;SDS011;30433;45.596;8.408;2023-06-14T19:28:18;9.18;;;6.30;;
44706;SDS011;30433;45.596;8.408;2023-06-14T19:34:22;7.70;;;6.90;;
44706;SDS011;30433;45.596;8.408;2023-06-14T19:46:28;8.07;;;7.22;;
44706;SDS011;30433;45.596;8.408;2023-06-14T19:52:30;7.97;;;6.57;;
44706;SDS011;30433;45.596;8.408;2023-06-14T19:58:32;8.18;;;6.07;;
44706;SDS011;30433;45.596;8.408;2023-06-14T20:18:30;6.85;;;6.07;;
44706;SDS011;30433;45.596;8.408;2023-06-14T20:39:31;12.45;;;6.40;;
44706;SDS011;30433;45.596;8.408;2023-06-14T20:52:31;8.35;;;6.05;;
44706;SDS011;30433;45.596;8.408;2023-06-14T20:58:35;14.00;;;6.20;;
44706;SDS011;30433;45.596;8.408;2023-06-14T21:11:34;8.77;;;5.63;;
44706;SDS011;30433;45.596;8.408;2023-06-14T21:52:41;6.80;;;6.00;;
44706;SDS011;30433;45.596;8.408;2023-06-14T22:05:41;6.07;;;5.57;;
44706;SDS011;30433;45.596;8.408;2023-06-14T22:11:44;9.43;;;6.57;;
44706;SDS011;30433;45.596;8.408;2023-06-14T23:07:00;9.80;;;8.27;;
44706;SDS011;30433;45.596;8.408;2023-06-14T23:13:16;12.63;;;11.32;;
44706;SDS011;30433;45.596;8.408;2023-06-14T23:19:20;14.68;;;11.18;;
44706;SDS011;30433;45.596;8.408;2023-06-14T23:25:23;5.07;;;1.58;;
44706;SDS011;30433;45.596;8.408;2023-06-14T23:38:24;4.65;;;3.10;;
44706;SDS011;30433;45.596;8.408;2023-06-14T23:51:26;6.85;;;3.40;;
